Terminal Aerodrome Forecast
Issued by NWS Corpus Christi, TX

Home | Current Version | Previous Version | Text Only | Print | Product List | Glossary On
Versions: 1 2 3 4 5 6 7 8 9 10 11 12 13 14 15 16 17
000
FTUS44 KCRP 180900 AAA
TAFCRP
TAF AMD
KCRP 180924Z 1809/1906 15006KT 6SM BR OVC020
      TEMPO 1811/1813 3SM BR BKN014
     FM181500 18008KT P6SM VCSH FEW009 BKN025
     FM181800 16010KT P6SM BKN035
      TEMPO 1819/1823 -TSRA BKN025CB
     FM190100 14012KT P6SM OVC018=

USA.gov is the U.S. government's official web portal to all federal, state and local government web resources and services.